Terminal Aerodrome Forecast
Issued by NWS Chicago, IL

Home | Current Version | Previous Version | Text Only | Print | Product List | Glossary Off
Versions: 1 2 3 4 5 6 7 8 9 10 11 12 13 14 15 16 17 18 19 20 21 22 23 24 25 26 27 28 29 30 31

883
FTUS43 KLOT 232107 AAB
TAFRFD
TAF AMD
KRFD 232107Z 2321/2418 09008KT P6SM BKN025 BKN080
      TEMPO 2321/2324 SCT025
     FM240500 09006KT 5SM BR OVC008
     FM241500 10007KT 6SM BR OVC015=

USA.gov is the U.S. government's official web portal to all federal, state and local government web resources and services.